sensor_id;sensor_type;location;lat;lon;timestamp;P1;durP1;ratioP1;P2;durP2;ratioP2
73023;SDS011;72676;47.526;8.538;2023-11-19T00:01:24;7.40;;;3.60;;
73023;SDS011;72676;47.526;8.538;2023-11-19T00:03:51;7.07;;;3.20;;
73023;SDS011;72676;47.526;8.538;2023-11-19T00:06:18;11.23;;;3.77;;
73023;SDS011;72676;47.526;8.538;2023-11-19T00:08:44;6.90;;;3.57;;
73023;SDS011;72676;47.526;8.538;2023-11-19T00:11:10;10.30;;;3.37;;
73023;SDS011;72676;47.526;8.538;2023-11-19T00:13:37;16.63;;;3.43;;
73023;SDS011;72676;47.526;8.538;2023-11-19T00:16:03;6.90;;;2.97;;
73023;SDS011;72676;47.526;8.538;2023-11-19T00:18:30;8.87;;;3.77;;
73023;SDS011;72676;47.526;8.538;2023-11-19T00:20:57;6.40;;;3.37;;
73023;SDS011;72676;47.526;8.538;2023-11-19T00:23:23;7.43;;;3.40;;
73023;SDS011;72676;47.526;8.538;2023-11-19T00:25:50;7.10;;;3.40;;
73023;SDS011;72676;47.526;8.538;2023-11-19T00:28:16;7.80;;;2.97;;
73023;SDS011;72676;47.526;8.538;2023-11-19T00:30:43;9.33;;;3.50;;
73023;SDS011;72676;47.526;8.538;2023-11-19T00:33:09;6.23;;;3.00;;
73023;SDS011;72676;47.526;8.538;2023-11-19T00:35:35;6.00;;;2.80;;
73023;SDS011;72676;47.526;8.538;2023-11-19T00:38:02;5.40;;;2.93;;
73023;SDS011;72676;47.526;8.538;2023-11-19T00:40:30;10.20;;;2.70;;
73023;SDS011;72676;47.526;8.538;2023-11-19T00:42:56;8.73;;;2.70;;
73023;SDS011;72676;47.526;8.538;2023-11-19T00:45:26;9.17;;;3.70;;
73023;SDS011;72676;47.526;8.538;2023-11-19T00:47:53;6.47;;;3.00;;
73023;SDS011;72676;47.526;8.538;2023-11-19T00:50:19;7.20;;;3.07;;
73023;SDS011;72676;47.526;8.538;2023-11-19T00:52:46;7.27;;;2.80;;
73023;SDS011;72676;47.526;8.538;2023-11-19T00:55:13;6.13;;;2.13;;
73023;SDS011;72676;47.526;8.538;2023-11-19T00:57:39;12.30;;;3.00;;
73023;SDS011;72676;47.526;8.538;2023-11-19T01:00:06;6.80;;;3.37;;
73023;SDS011;72676;47.526;8.538;2023-11-19T01:02:46;4.90;;;2.40;;
73023;SDS011;72676;47.526;8.538;2023-11-19T01:05:13;8.10;;;3.37;;
73023;SDS011;72676;47.526;8.538;2023-11-19T01:07:42;8.23;;;2.73;;
73023;SDS011;72676;47.526;8.538;2023-11-19T01:10:09;7.20;;;3.07;;
73023;SDS011;72676;47.526;8.538;2023-11-19T01:12:36;8.30;;;3.00;;
73023;SDS011;72676;47.526;8.538;2023-11-19T01:15:04;6.60;;;2.67;;
73023;SDS011;72676;47.526;8.538;2023-11-19T01:17:31;8.17;;;3.43;;
73023;SDS011;72676;47.526;8.538;2023-11-19T01:19:58;6.90;;;3.40;;
73023;SDS011;72676;47.526;8.538;2023-11-19T01:22:24;7.30;;;3.30;;
73023;SDS011;72676;47.526;8.538;2023-11-19T01:24:51;6.90;;;2.80;;
73023;SDS011;72676;47.526;8.538;2023-11-19T01:27:18;6.50;;;3.00;;
73023;SDS011;72676;47.526;8.538;2023-11-19T01:29:44;8.90;;;2.83;;
73023;SDS011;72676;47.526;8.538;2023-11-19T01:32:11;7.23;;;2.57;;
73023;SDS011;72676;47.526;8.538;2023-11-19T01:34:38;7.90;;;2.50;;
73023;SDS011;72676;47.526;8.538;2023-11-19T01:37:05;6.73;;;2.30;;
73023;SDS011;72676;47.526;8.538;2023-11-19T01:39:31;7.67;;;3.20;;
73023;SDS011;72676;47.526;8.538;2023-11-19T01:41:58;5.27;;;2.70;;
73023;SDS011;72676;47.526;8.538;2023-11-19T01:44:25;5.07;;;2.50;;
73023;SDS011;72676;47.526;8.538;2023-11-19T01:46:51;6.50;;;2.70;;
73023;SDS011;72676;47.526;8.538;2023-11-19T01:49:18;7.70;;;3.03;;
73023;SDS011;72676;47.526;8.538;2023-11-19T01:51:46;4.77;;;2.17;;
73023;SDS011;72676;47.526;8.538;2023-11-19T01:54:13;7.50;;;3.27;;
73023;SDS011;72676;47.526;8.538;2023-11-19T01:56:41;6.80;;;2.77;;
73023;SDS011;72676;47.526;8.538;2023-11-19T01:59:08;7.70;;;2.73;;
73023;SDS011;72676;47.526;8.538;2023-11-19T02:01:37;6.00;;;2.90;;
73023;SDS011;72676;47.526;8.538;2023-11-19T02:04:07;8.60;;;2.80;;
73023;SDS011;72676;47.526;8.538;2023-11-19T02:06:34;18.00;;;2.53;;
73023;SDS011;72676;47.526;8.538;2023-11-19T02:09:06;6.50;;;2.80;;
73023;SDS011;72676;47.526;8.538;2023-11-19T02:11:34;4.63;;;2.60;;
73023;SDS011;72676;47.526;8.538;2023-11-19T02:14:01;5.33;;;2.40;;
73023;SDS011;72676;47.526;8.538;2023-11-19T02:16:28;6.80;;;3.10;;
73023;SDS011;72676;47.526;8.538;2023-11-19T02:18:56;5.23;;;2.83;;
73023;SDS011;72676;47.526;8.538;2023-11-19T02:21:22;5.77;;;2.63;;
73023;SDS011;72676;47.526;8.538;2023-11-19T02:23:48;6.80;;;3.17;;
73023;SDS011;72676;47.526;8.538;2023-11-19T02:26:59;7.00;;;3.30;;
73023;SDS011;72676;47.526;8.538;2023-11-19T02:29:23;7.70;;;2.70;;
73023;SDS011;72676;47.526;8.538;2023-11-19T02:31:50;6.30;;;2.90;;
73023;SDS011;72676;47.526;8.538;2023-11-19T02:34:16;6.87;;;3.00;;
73023;SDS011;72676;47.526;8.538;2023-11-19T02:36:43;6.67;;;3.13;;
73023;SDS011;72676;47.526;8.538;2023-11-19T02:39:09;9.20;;;3.60;;
73023;SDS011;72676;47.526;8.538;2023-11-19T02:41:38;10.33;;;3.53;;
73023;SDS011;72676;47.526;8.538;2023-11-19T02:44:06;6.33;;;3.53;;
73023;SDS011;72676;47.526;8.538;2023-11-19T02:46:33;9.10;;;3.57;;
73023;SDS011;72676;47.526;8.538;2023-11-19T02:48:59;7.10;;;3.30;;
73023;SDS011;72676;47.526;8.538;2023-11-19T02:51:26;7.20;;;3.40;;
73023;SDS011;72676;47.526;8.538;2023-11-19T02:53:53;7.83;;;3.87;;
73023;SDS011;72676;47.526;8.538;2023-11-19T02:56:20;8.20;;;4.30;;
73023;SDS011;72676;47.526;8.538;2023-11-19T02:58:52;8.07;;;4.47;;
73023;SDS011;72676;47.526;8.538;2023-11-19T03:01:22;12.73;;;4.50;;
73023;SDS011;72676;47.526;8.538;2023-11-19T03:04:00;10.47;;;4.23;;
73023;SDS011;72676;47.526;8.538;2023-11-19T03:06:29;12.00;;;4.80;;
73023;SDS011;72676;47.526;8.538;2023-11-19T03:08:56;20.10;;;5.40;;
73023;SDS011;72676;47.526;8.538;2023-11-19T03:11:22;8.90;;;4.53;;
73023;SDS011;72676;47.526;8.538;2023-11-19T03:13:48;10.63;;;5.33;;
73023;SDS011;72676;47.526;8.538;2023-11-19T03:16:15;10.23;;;4.67;;
73023;SDS011;72676;47.526;8.538;2023-11-19T03:18:42;9.40;;;4.83;;
73023;SDS011;72676;47.526;8.538;2023-11-19T03:21:09;11.00;;;4.70;;
73023;SDS011;72676;47.526;8.538;2023-11-19T03:23:36;13.07;;;4.93;;
73023;SDS011;72676;47.526;8.538;2023-11-19T03:26:03;11.47;;;5.20;;
73023;SDS011;72676;47.526;8.538;2023-11-19T03:28:31;10.87;;;5.40;;
73023;SDS011;72676;47.526;8.538;2023-11-19T03:30:58;9.10;;;4.50;;
73023;SDS011;72676;47.526;8.538;2023-11-19T03:33:24;10.03;;;5.40;;
73023;SDS011;72676;47.526;8.538;2023-11-19T03:35:54;12.63;;;5.13;;
73023;SDS011;72676;47.526;8.538;2023-11-19T03:38:23;10.00;;;5.27;;
73023;SDS011;72676;47.526;8.538;2023-11-19T03:40:50;11.70;;;5.30;;
73023;SDS011;72676;47.526;8.538;2023-11-19T03:43:17;11.33;;;5.30;;
73023;SDS011;72676;47.526;8.538;2023-11-19T03:45:45;12.50;;;5.57;;
73023;SDS011;72676;47.526;8.538;2023-11-19T03:48:12;10.13;;;4.60;;
73023;SDS011;72676;47.526;8.538;2023-11-19T03:50:42;10.60;;;5.10;;
73023;SDS011;72676;47.526;8.538;2023-11-19T03:53:08;9.60;;;4.80;;
73023;SDS011;72676;47.526;8.538;2023-11-19T03:55:35;9.77;;;4.60;;
73023;SDS011;72676;47.526;8.538;2023-11-19T03:58:01;10.40;;;4.77;;
73023;SDS011;72676;47.526;8.538;2023-11-19T04:00:28;8.73;;;4.60;;
73023;SDS011;72676;47.526;8.538;2023-11-19T04:02:54;10.20;;;4.23;;
73023;SDS011;72676;47.526;8.538;2023-11-19T04:05:21;8.67;;;4.20;;
73023;SDS011;72676;47.526;8.538;2023-11-19T04:07:47;10.10;;;3.90;;
73023;SDS011;72676;47.526;8.538;2023-11-19T04:10:14;7.97;;;3.40;;
73023;SDS011;72676;47.526;8.538;2023-11-19T04:12:42;9.70;;;3.60;;
73023;SDS011;72676;47.526;8.538;2023-11-19T04:15:09;6.07;;;3.00;;
73023;SDS011;72676;47.526;8.538;2023-11-19T04:17:37;13.10;;;3.90;;
73023;SDS011;72676;47.526;8.538;2023-11-19T04:20:04;8.80;;;3.40;;
73023;SDS011;72676;47.526;8.538;2023-11-19T04:22:32;8.37;;;3.10;;
73023;SDS011;72676;47.526;8.538;2023-11-19T04:24:58;8.33;;;3.57;;
73023;SDS011;72676;47.526;8.538;2023-11-19T04:27:25;10.37;;;3.97;;
73023;SDS011;72676;47.526;8.538;2023-11-19T04:29:51;8.27;;;3.33;;
73023;SDS011;72676;47.526;8.538;2023-11-19T04:32:18;9.93;;;4.03;;
73023;SDS011;72676;47.526;8.538;2023-11-19T04:34:45;8.70;;;3.30;;
73023;SDS011;72676;47.526;8.538;2023-11-19T04:37:11;11.70;;;3.80;;
73023;SDS011;72676;47.526;8.538;2023-11-19T04:39:39;7.87;;;3.83;;
73023;SDS011;72676;47.526;8.538;2023-11-19T04:42:06;9.53;;;4.23;;
73023;SDS011;72676;47.526;8.538;2023-11-19T04:44:33;7.57;;;3.90;;
73023;SDS011;72676;47.526;8.538;2023-11-19T04:46:59;8.80;;;4.40;;
73023;SDS011;72676;47.526;8.538;2023-11-19T04:49:26;8.90;;;4.20;;
73023;SDS011;72676;47.526;8.538;2023-11-19T04:51:53;8.13;;;4.10;;
73023;SDS011;72676;47.526;8.538;2023-11-19T04:54:20;8.67;;;4.37;;
73023;SDS011;72676;47.526;8.538;2023-11-19T04:56:46;8.00;;;3.67;;
73023;SDS011;72676;47.526;8.538;2023-11-19T04:59:13;9.07;;;3.93;;
73023;SDS011;72676;47.526;8.538;2023-11-19T05:01:40;8.83;;;4.17;;
73023;SDS011;72676;47.526;8.538;2023-11-19T05:04:07;9.03;;;4.20;;
73023;SDS011;72676;47.526;8.538;2023-11-19T05:06:34;10.10;;;3.90;;
73023;SDS011;72676;47.526;8.538;2023-11-19T05:09:01;8.90;;;3.93;;
73023;SDS011;72676;47.526;8.538;2023-11-19T05:11:32;8.70;;;4.07;;
73023;SDS011;72676;47.526;8.538;2023-11-19T05:14:02;7.73;;;3.47;;
73023;SDS011;72676;47.526;8.538;2023-11-19T05:16:30;7.73;;;3.27;;
73023;SDS011;72676;47.526;8.538;2023-11-19T05:18:57;10.23;;;3.10;;
73023;SDS011;72676;47.526;8.538;2023-11-19T05:21:23;6.87;;;2.90;;
73023;SDS011;72676;47.526;8.538;2023-11-19T05:23:50;7.73;;;3.33;;
73023;SDS011;72676;47.526;8.538;2023-11-19T05:26:17;7.63;;;3.10;;
73023;SDS011;72676;47.526;8.538;2023-11-19T05:28:45;6.97;;;2.80;;
73023;SDS011;72676;47.526;8.538;2023-11-19T05:31:11;7.60;;;3.30;;
73023;SDS011;72676;47.526;8.538;2023-11-19T05:33:38;6.77;;;2.80;;
73023;SDS011;72676;47.526;8.538;2023-11-19T05:36:04;6.30;;;2.83;;
73023;SDS011;72676;47.526;8.538;2023-11-19T05:38:32;7.77;;;2.93;;
73023;SDS011;72676;47.526;8.538;2023-11-19T05:40:58;7.70;;;3.10;;
73023;SDS011;72676;47.526;8.538;2023-11-19T05:43:24;7.43;;;3.07;;
73023;SDS011;72676;47.526;8.538;2023-11-19T05:45:51;7.10;;;2.67;;
73023;SDS011;72676;47.526;8.538;2023-11-19T05:48:17;6.60;;;2.80;;
73023;SDS011;72676;47.526;8.538;2023-11-19T05:50:44;6.77;;;2.90;;
73023;SDS011;72676;47.526;8.538;2023-11-19T05:53:10;7.47;;;3.47;;
73023;SDS011;72676;47.526;8.538;2023-11-19T05:55:39;7.73;;;3.33;;
73023;SDS011;72676;47.526;8.538;2023-11-19T05:58:31;6.73;;;3.00;;
73023;SDS011;72676;47.526;8.538;2023-11-19T06:00:58;6.13;;;2.63;;
73023;SDS011;72676;47.526;8.538;2023-11-19T06:03:27;6.33;;;2.70;;
73023;SDS011;72676;47.526;8.538;2023-11-19T06:05:54;5.83;;;2.50;;
73023;SDS011;72676;47.526;8.538;2023-11-19T06:08:20;8.10;;;3.00;;
73023;SDS011;72676;47.526;8.538;2023-11-19T06:10:47;5.90;;;2.60;;
73023;SDS011;72676;47.526;8.538;2023-11-19T06:13:16;9.43;;;2.77;;
73023;SDS011;72676;47.526;8.538;2023-11-19T06:15:42;7.43;;;2.70;;
73023;SDS011;72676;47.526;8.538;2023-11-19T06:18:09;5.70;;;2.10;;
73023;SDS011;72676;47.526;8.538;2023-11-19T06:20:37;5.83;;;2.37;;
73023;SDS011;72676;47.526;8.538;2023-11-19T06:23:07;6.00;;;2.60;;
73023;SDS011;72676;47.526;8.538;2023-11-19T06:25:33;6.03;;;2.30;;
73023;SDS011;72676;47.526;8.538;2023-11-19T06:28:01;6.07;;;2.57;;
73023;SDS011;72676;47.526;8.538;2023-11-19T06:30:28;6.80;;;2.57;;
73023;SDS011;72676;47.526;8.538;2023-11-19T06:32:56;6.37;;;2.50;;
73023;SDS011;72676;47.526;8.538;2023-11-19T06:35:22;6.73;;;2.70;;
73023;SDS011;72676;47.526;8.538;2023-11-19T06:37:49;6.53;;;2.20;;
73023;SDS011;72676;47.526;8.538;2023-11-19T06:40:15;7.33;;;2.20;;
73023;SDS011;72676;47.526;8.538;2023-11-19T06:42:42;5.03;;;1.97;;
73023;SDS011;72676;47.526;8.538;2023-11-19T06:45:09;4.90;;;1.87;;
73023;SDS011;72676;47.526;8.538;2023-11-19T06:47:35;5.80;;;2.10;;
73023;SDS011;72676;47.526;8.538;2023-11-19T06:50:02;4.70;;;1.70;;
73023;SDS011;72676;47.526;8.538;2023-11-19T06:52:31;7.00;;;1.97;;
73023;SDS011;72676;47.526;8.538;2023-11-19T06:54:58;5.20;;;1.93;;
73023;SDS011;72676;47.526;8.538;2023-11-19T06:57:27;6.00;;;2.00;;
73023;SDS011;72676;47.526;8.538;2023-11-19T06:59:55;6.23;;;2.27;;
73023;SDS011;72676;47.526;8.538;2023-11-19T07:02:22;5.60;;;1.70;;
73023;SDS011;72676;47.526;8.538;2023-11-19T07:04:52;5.90;;;1.93;;
73023;SDS011;72676;47.526;8.538;2023-11-19T07:07:19;9.50;;;2.20;;
73023;SDS011;72676;47.526;8.538;2023-11-19T07:09:46;6.30;;;1.80;;
73023;SDS011;72676;47.526;8.538;2023-11-19T07:12:12;4.87;;;1.70;;
73023;SDS011;72676;47.526;8.538;2023-11-19T07:14:39;5.60;;;1.93;;
73023;SDS011;72676;47.526;8.538;2023-11-19T07:17:08;6.30;;;1.83;;
73023;SDS011;72676;47.526;8.538;2023-11-19T07:19:37;5.10;;;1.80;;
73023;SDS011;72676;47.526;8.538;2023-11-19T07:22:05;6.00;;;1.90;;
73023;SDS011;72676;47.526;8.538;2023-11-19T07:24:32;6.90;;;2.17;;
73023;SDS011;72676;47.526;8.538;2023-11-19T07:26:59;5.63;;;1.60;;
73023;SDS011;72676;47.526;8.538;2023-11-19T07:29:26;6.63;;;2.20;;
73023;SDS011;72676;47.526;8.538;2023-11-19T07:31:55;8.30;;;1.90;;
73023;SDS011;72676;47.526;8.538;2023-11-19T07:34:23;5.27;;;2.00;;
73023;SDS011;72676;47.526;8.538;2023-11-19T07:36:51;5.77;;;1.80;;
73023;SDS011;72676;47.526;8.538;2023-11-19T07:39:18;7.37;;;1.70;;
73023;SDS011;72676;47.526;8.538;2023-11-19T07:41:44;5.40;;;1.90;;
73023;SDS011;72676;47.526;8.538;2023-11-19T07:44:11;5.67;;;2.20;;
73023;SDS011;72676;47.526;8.538;2023-11-19T07:46:37;4.60;;;1.57;;
73023;SDS011;72676;47.526;8.538;2023-11-19T07:49:04;5.40;;;1.77;;
73023;SDS011;72676;47.526;8.538;2023-11-19T07:51:30;5.90;;;1.77;;
73023;SDS011;72676;47.526;8.538;2023-11-19T07:53:57;4.93;;;1.77;;
73023;SDS011;72676;47.526;8.538;2023-11-19T07:56:23;6.27;;;1.63;;
73023;SDS011;72676;47.526;8.538;2023-11-19T07:58:50;6.80;;;2.00;;
73023;SDS011;72676;47.526;8.538;2023-11-19T08:01:18;6.73;;;1.50;;
73023;SDS011;72676;47.526;8.538;2023-11-19T08:03:44;4.40;;;1.50;;
73023;SDS011;72676;47.526;8.538;2023-11-19T08:06:13;5.33;;;1.60;;
73023;SDS011;72676;47.526;8.538;2023-11-19T08:08:40;5.77;;;2.03;;
73023;SDS011;72676;47.526;8.538;2023-11-19T08:11:06;4.77;;;1.43;;
73023;SDS011;72676;47.526;8.538;2023-11-19T08:13:33;5.00;;;1.47;;
73023;SDS011;72676;47.526;8.538;2023-11-19T08:16:00;5.57;;;2.10;;
73023;SDS011;72676;47.526;8.538;2023-11-19T08:18:26;6.40;;;1.70;;
73023;SDS011;72676;47.526;8.538;2023-11-19T08:20:53;5.40;;;1.90;;
73023;SDS011;72676;47.526;8.538;2023-11-19T08:23:19;5.60;;;1.60;;
73023;SDS011;72676;47.526;8.538;2023-11-19T08:25:46;5.90;;;1.87;;
73023;SDS011;72676;47.526;8.538;2023-11-19T08:28:13;5.60;;;1.50;;
73023;SDS011;72676;47.526;8.538;2023-11-19T08:30:39;7.67;;;1.80;;
73023;SDS011;72676;47.526;8.538;2023-11-19T08:33:06;6.90;;;1.43;;
73023;SDS011;72676;47.526;8.538;2023-11-19T08:35:33;4.77;;;1.37;;
73023;SDS011;72676;47.526;8.538;2023-11-19T08:37:59;6.27;;;1.60;;
73023;SDS011;72676;47.526;8.538;2023-11-19T08:40:26;4.80;;;1.50;;
73023;SDS011;72676;47.526;8.538;2023-11-19T08:42:53;4.80;;;1.30;;
73023;SDS011;72676;47.526;8.538;2023-11-19T08:45:20;4.83;;;1.43;;
73023;SDS011;72676;47.526;8.538;2023-11-19T08:47:46;5.80;;;1.90;;
73023;SDS011;72676;47.526;8.538;2023-11-19T08:50:13;6.73;;;1.90;;
73023;SDS011;72676;47.526;8.538;2023-11-19T08:52:39;4.77;;;1.57;;
73023;SDS011;72676;47.526;8.538;2023-11-19T08:55:06;5.73;;;1.47;;
73023;SDS011;72676;47.526;8.538;2023-11-19T08:57:32;6.10;;;1.73;;
73023;SDS011;72676;47.526;8.538;2023-11-19T08:59:59;5.07;;;1.70;;
73023;SDS011;72676;47.526;8.538;2023-11-19T09:02:25;5.27;;;1.63;;
73023;SDS011;72676;47.526;8.538;2023-11-19T09:04:52;4.93;;;1.57;;
73023;SDS011;72676;47.526;8.538;2023-11-19T09:07:20;4.60;;;1.50;;
73023;SDS011;72676;47.526;8.538;2023-11-19T09:09:47;5.27;;;1.77;;
73023;SDS011;72676;47.526;8.538;2023-11-19T09:12:13;5.00;;;1.40;;
73023;SDS011;72676;47.526;8.538;2023-11-19T09:14:40;5.20;;;1.50;;
73023;SDS011;72676;47.526;8.538;2023-11-19T09:17:08;5.13;;;1.53;;
73023;SDS011;72676;47.526;8.538;2023-11-19T09:19:35;5.67;;;1.87;;
73023;SDS011;72676;47.526;8.538;2023-11-19T09:22:02;5.70;;;1.57;;
73023;SDS011;72676;47.526;8.538;2023-11-19T09:24:28;6.07;;;1.87;;
73023;SDS011;72676;47.526;8.538;2023-11-19T09:26:55;7.57;;;2.10;;
73023;SDS011;72676;47.526;8.538;2023-11-19T09:29:22;8.63;;;2.23;;
73023;SDS011;72676;47.526;8.538;2023-11-19T09:31:49;5.07;;;2.00;;
73023;SDS011;72676;47.526;8.538;2023-11-19T09:34:16;5.13;;;1.80;;
73023;SDS011;72676;47.526;8.538;2023-11-19T09:36:42;5.63;;;2.03;;
73023;SDS011;72676;47.526;8.538;2023-11-19T09:39:11;6.50;;;1.80;;
73023;SDS011;72676;47.526;8.538;2023-11-19T09:41:39;5.43;;;1.60;;
73023;SDS011;72676;47.526;8.538;2023-11-19T09:44:05;9.27;;;2.27;;
73023;SDS011;72676;47.526;8.538;2023-11-19T09:46:32;6.23;;;2.50;;
73023;SDS011;72676;47.526;8.538;2023-11-19T09:48:59;5.93;;;1.63;;
73023;SDS011;72676;47.526;8.538;2023-11-19T09:51:28;4.90;;;1.67;;
73023;SDS011;72676;47.526;8.538;2023-11-19T09:53:55;5.47;;;1.90;;
73023;SDS011;72676;47.526;8.538;2023-11-19T09:56:22;6.70;;;1.77;;
73023;SDS011;72676;47.526;8.538;2023-11-19T09:58:49;4.73;;;1.60;;
73023;SDS011;72676;47.526;8.538;2023-11-19T10:01:15;9.20;;;1.80;;
73023;SDS011;72676;47.526;8.538;2023-11-19T10:03:54;5.00;;;1.50;;
73023;SDS011;72676;47.526;8.538;2023-11-19T10:06:21;6.10;;;1.73;;
73023;SDS011;72676;47.526;8.538;2023-11-19T10:08:50;5.93;;;1.73;;
73023;SDS011;72676;47.526;8.538;2023-11-19T10:11:17;6.57;;;2.20;;
73023;SDS011;72676;47.526;8.538;2023-11-19T10:13:43;5.83;;;1.80;;
73023;SDS011;72676;47.526;8.538;2023-11-19T10:16:14;6.93;;;2.10;;
73023;SDS011;72676;47.526;8.538;2023-11-19T10:18:47;4.97;;;1.53;;
73023;SDS011;72676;47.526;8.538;2023-11-19T10:21:16;7.73;;;1.57;;
73023;SDS011;72676;47.526;8.538;2023-11-19T10:23:47;6.30;;;2.07;;
73023;SDS011;72676;47.526;8.538;2023-11-19T10:26:15;8.37;;;2.10;;
73023;SDS011;72676;47.526;8.538;2023-11-19T10:28:42;6.00;;;1.57;;
73023;SDS011;72676;47.526;8.538;2023-11-19T10:31:12;5.90;;;1.83;;
73023;SDS011;72676;47.526;8.538;2023-11-19T10:33:40;13.17;;;1.90;;
73023;SDS011;72676;47.526;8.538;2023-11-19T10:36:06;8.30;;;1.87;;
73023;SDS011;72676;47.526;8.538;2023-11-19T10:38:33;5.73;;;1.53;;
73023;SDS011;72676;47.526;8.538;2023-11-19T10:41:00;5.33;;;2.07;;
73023;SDS011;72676;47.526;8.538;2023-11-19T10:43:26;5.27;;;1.70;;
73023;SDS011;72676;47.526;8.538;2023-11-19T10:45:54;5.10;;;1.60;;
73023;SDS011;72676;47.526;8.538;2023-11-19T10:48:34;5.20;;;1.57;;
73023;SDS011;72676;47.526;8.538;2023-11-19T10:51:01;4.80;;;1.60;;
73023;SDS011;72676;47.526;8.538;2023-11-19T10:53:35;13.17;;;2.40;;
73023;SDS011;72676;47.526;8.538;2023-11-19T10:56:06;6.57;;;1.70;;
73023;SDS011;72676;47.526;8.538;2023-11-19T10:58:37;6.37;;;1.63;;
73023;SDS011;72676;47.526;8.538;2023-11-19T11:01:18;8.53;;;2.10;;
73023;SDS011;72676;47.526;8.538;2023-11-19T11:03:50;5.03;;;1.73;;
73023;SDS011;72676;47.526;8.538;2023-11-19T11:06:19;5.43;;;1.70;;
73023;SDS011;72676;47.526;8.538;2023-11-19T11:08:48;13.70;;;1.90;;
73023;SDS011;72676;47.526;8.538;2023-11-19T11:11:15;11.63;;;2.33;;
73023;SDS011;72676;47.526;8.538;2023-11-19T11:13:47;6.97;;;2.30;;
73023;SDS011;72676;47.526;8.538;2023-11-19T11:16:13;5.97;;;2.30;;
73023;SDS011;72676;47.526;8.538;2023-11-19T11:18:41;5.53;;;2.00;;
73023;SDS011;72676;47.526;8.538;2023-11-19T11:21:11;14.43;;;2.50;;
73023;SDS011;72676;47.526;8.538;2023-11-19T11:32:18;7.50;;;2.50;;
73023;SDS011;72676;47.526;8.538;2023-11-19T11:38:04;6.50;;;2.33;;
73023;SDS011;72676;47.526;8.538;2023-11-19T11:40:33;6.37;;;2.00;;
73023;SDS011;72676;47.526;8.538;2023-11-19T11:43:00;5.13;;;1.93;;
73023;SDS011;72676;47.526;8.538;2023-11-19T11:45:36;7.97;;;2.03;;
73023;SDS011;72676;47.526;8.538;2023-11-19T11:48:05;10.03;;;2.20;;
73023;SDS011;72676;47.526;8.538;2023-11-19T11:50:35;6.77;;;2.10;;
73023;SDS011;72676;47.526;8.538;2023-11-19T11:53:13;5.90;;;1.93;;
73023;SDS011;72676;47.526;8.538;2023-11-19T11:58:17;5.63;;;1.70;;
73023;SDS011;72676;47.526;8.538;2023-11-19T12:00:44;5.90;;;1.80;;
73023;SDS011;72676;47.526;8.538;2023-11-19T12:03:13;6.90;;;2.00;;
73023;SDS011;72676;47.526;8.538;2023-11-19T12:05:46;5.60;;;1.60;;
73023;SDS011;72676;47.526;8.538;2023-11-19T12:08:14;6.97;;;2.23;;
73023;SDS011;72676;47.526;8.538;2023-11-19T12:13:14;6.30;;;1.97;;
73023;SDS011;72676;47.526;8.538;2023-11-19T12:18:24;8.27;;;1.83;;
73023;SDS011;72676;47.526;8.538;2023-11-19T12:20:53;5.60;;;1.97;;
73023;SDS011;72676;47.526;8.538;2023-11-19T12:23:21;8.80;;;1.87;;
73023;SDS011;72676;47.526;8.538;2023-11-19T12:25:48;5.40;;;1.73;;
73023;SDS011;72676;47.526;8.538;2023-11-19T12:28:15;5.20;;;1.70;;
73023;SDS011;72676;47.526;8.538;2023-11-19T12:30:45;5.80;;;1.77;;
73023;SDS011;72676;47.526;8.538;2023-11-19T12:33:15;4.53;;;1.33;;
73023;SDS011;72676;47.526;8.538;2023-11-19T12:35:43;5.17;;;1.33;;
73023;SDS011;72676;47.526;8.538;2023-11-19T12:38:19;5.43;;;1.83;;
73023;SDS011;72676;47.526;8.538;2023-11-19T12:40:47;4.80;;;1.63;;
73023;SDS011;72676;47.526;8.538;2023-11-19T12:43:22;4.57;;;1.50;;
73023;SDS011;72676;47.526;8.538;2023-11-19T12:45:49;5.50;;;1.63;;
73023;SDS011;72676;47.526;8.538;2023-11-19T12:48:15;8.43;;;1.90;;
73023;SDS011;72676;47.526;8.538;2023-11-19T12:53:22;7.10;;;2.23;;
73023;SDS011;72676;47.526;8.538;2023-11-19T12:55:49;5.17;;;1.90;;
73023;SDS011;72676;47.526;8.538;2023-11-19T13:00:59;6.17;;;2.00;;
73023;SDS011;72676;47.526;8.538;2023-11-19T13:03:33;7.30;;;1.80;;
73023;SDS011;72676;47.526;8.538;2023-11-19T13:06:04;5.57;;;1.40;;
73023;SDS011;72676;47.526;8.538;2023-11-19T13:08:50;4.97;;;1.40;;
73023;SDS011;72676;47.526;8.538;2023-11-19T13:11:31;4.13;;;1.10;;
73023;SDS011;72676;47.526;8.538;2023-11-19T13:14:02;7.83;;;1.60;;
73023;SDS011;72676;47.526;8.538;2023-11-19T13:16:38;5.57;;;1.43;;
73023;SDS011;72676;47.526;8.538;2023-11-19T13:19:09;5.63;;;1.17;;
73023;SDS011;72676;47.526;8.538;2023-11-19T13:21:36;6.27;;;1.53;;
73023;SDS011;72676;47.526;8.538;2023-11-19T13:24:04;6.10;;;1.93;;
73023;SDS011;72676;47.526;8.538;2023-11-19T13:26:31;4.20;;;1.40;;
73023;SDS011;72676;47.526;8.538;2023-11-19T13:28:58;5.83;;;1.47;;
73023;SDS011;72676;47.526;8.538;2023-11-19T13:31:25;4.67;;;1.70;;
73023;SDS011;72676;47.526;8.538;2023-11-19T13:33:52;4.80;;;1.50;;
73023;SDS011;72676;47.526;8.538;2023-11-19T13:36:18;7.03;;;1.50;;
73023;SDS011;72676;47.526;8.538;2023-11-19T13:38:45;4.87;;;1.07;;
73023;SDS011;72676;47.526;8.538;2023-11-19T13:41:13;3.87;;;1.30;;
73023;SDS011;72676;47.526;8.538;2023-11-19T13:43:40;4.03;;;1.30;;
73023;SDS011;72676;47.526;8.538;2023-11-19T13:46:06;4.80;;;1.50;;
73023;SDS011;72676;47.526;8.538;2023-11-19T13:48:36;6.00;;;1.13;;
73023;SDS011;72676;47.526;8.538;2023-11-19T13:51:02;5.27;;;1.40;;
73023;SDS011;72676;47.526;8.538;2023-11-19T13:53:29;4.20;;;1.40;;
73023;SDS011;72676;47.526;8.538;2023-11-19T13:55:55;6.00;;;1.60;;
73023;SDS011;72676;47.526;8.538;2023-11-19T13:58:21;6.50;;;1.83;;
73023;SDS011;72676;47.526;8.538;2023-11-19T14:00:48;5.53;;;1.80;;
73023;SDS011;72676;47.526;8.538;2023-11-19T14:03:14;3.60;;;1.10;;
73023;SDS011;72676;47.526;8.538;2023-11-19T14:05:41;6.30;;;1.37;;
73023;SDS011;72676;47.526;8.538;2023-11-19T14:08:08;4.20;;;1.27;;
73023;SDS011;72676;47.526;8.538;2023-11-19T14:10:50;4.57;;;1.47;;
73023;SDS011;72676;47.526;8.538;2023-11-19T14:13:17;9.60;;;1.50;;
73023;SDS011;72676;47.526;8.538;2023-11-19T14:15:43;4.20;;;1.50;;
73023;SDS011;72676;47.526;8.538;2023-11-19T14:18:13;5.10;;;1.80;;
73023;SDS011;72676;47.526;8.538;2023-11-19T14:20:40;5.00;;;1.70;;
73023;SDS011;72676;47.526;8.538;2023-11-19T14:23:06;4.63;;;1.40;;
73023;SDS011;72676;47.526;8.538;2023-11-19T14:25:33;5.80;;;1.53;;
73023;SDS011;72676;47.526;8.538;2023-11-19T14:28:00;7.23;;;1.67;;
73023;SDS011;72676;47.526;8.538;2023-11-19T14:30:29;8.50;;;3.23;;
73023;SDS011;72676;47.526;8.538;2023-11-19T14:32:55;4.40;;;1.37;;
73023;SDS011;72676;47.526;8.538;2023-11-19T14:35:21;6.00;;;1.87;;
73023;SDS011;72676;47.526;8.538;2023-11-19T14:37:48;6.13;;;2.00;;
73023;SDS011;72676;47.526;8.538;2023-11-19T14:40:15;6.70;;;1.80;;
73023;SDS011;72676;47.526;8.538;2023-11-19T14:42:41;5.70;;;2.20;;
73023;SDS011;72676;47.526;8.538;2023-11-19T14:45:09;5.20;;;1.57;;
73023;SDS011;72676;47.526;8.538;2023-11-19T14:47:38;4.17;;;1.30;;
73023;SDS011;72676;47.526;8.538;2023-11-19T14:50:05;4.97;;;1.73;;
73023;SDS011;72676;47.526;8.538;2023-11-19T14:52:34;4.67;;;1.20;;
73023;SDS011;72676;47.526;8.538;2023-11-19T14:55:01;4.43;;;1.20;;
73023;SDS011;72676;47.526;8.538;2023-11-19T14:57:28;6.40;;;1.83;;
73023;SDS011;72676;47.526;8.538;2023-11-19T14:59:55;4.20;;;1.40;;
73023;SDS011;72676;47.526;8.538;2023-11-19T15:02:21;3.80;;;1.30;;
73023;SDS011;72676;47.526;8.538;2023-11-19T15:04:48;11.20;;;2.90;;
73023;SDS011;72676;47.526;8.538;2023-11-19T15:07:14;8.73;;;1.60;;
73023;SDS011;72676;47.526;8.538;2023-11-19T15:09:41;6.73;;;1.80;;
73023;SDS011;72676;47.526;8.538;2023-11-19T15:12:07;5.13;;;1.80;;
73023;SDS011;72676;47.526;8.538;2023-11-19T15:14:35;6.50;;;1.80;;